Terminal Aerodrome Forecast
Issued by NWS

Home | Current Version | Previous Version | Graphics & Text | Print | Product List | Glossary On
Versions: 1 2 3 4 5 6 7 8 9 10 11 12 13 14
296
FTUS43 KTOP 300527
TAFMHK
TAF
KMHK 300527Z 3006/0106 30005KT P6SM BKN040
     FM301600 28012G19KT P6SM BKN040
     FM302300 27004KT P6SM SCT040=

USA.gov is the U.S. government's official web portal to all federal, state and local government web resources and services.